Little Rock, AR (72216)

12:00 PM CDT on August 25, 2016 (GMT -0500)
Greens at North Hills | | Change Station

Elev 325 ft 34.82 °N, 92.22 °W | Updated 3 minutes ago

Mostly Cloudy
Mostly Cloudy
98.8 °F
Feels Like 111 °F
N
0.0
Wind Variable Wind from East

Today
High -- | Low -- °F
--% Chance of Precip.
Yesterday
High -- | Low -- °F
Precip. -- in
Pressure 30.12 in
Visibility 10.0 miles
Clouds Mostly Cloudy 3000 ft
Mostly Cloudy 25000 ft
Heat Index 111 °F
Dew Point 74 °F
Humidity 45%
Rainfall 0.00 in
Snow Depth Not available.
6:37 AM 7:43 PM
Last Quarter, 44% visible
METAR KLIT 251653Z 19006KT 10SM BKN030 BKN250 34/23 A3012 RMK AO2 SLP199 T03390228
Pressure 30.12 in
Visibility 10.0 miles
Clouds Mostly Cloudy 3000 ft
Mostly Cloudy 25000 ft
Heat Index 111 °F
Dew Point 74 °F
Humidity 45%
Rainfall 0.00 in
Snow Depth Not available.
6:37 AM 7:43 PM
Last Quarter, 44% visible
METAR KLIT 251653Z 19006KT 10SM BKN030 BKN250 34/23 A3012 RMK AO2 SLP199 T03390228

10-Day Weather Forecast

Almanac

Astronomy

Aug. 25, 2016 Rise Set
Actual Time
Civil Twilight
Nautical Twilight
Astronomical Twilight
Moon
Length of Visible Light
Length of Day
Tomorrow will be .
, % of the Moon is Illuminated

Today's Extremes

State Highs State Lows

Community

WunderPhotos

Upload Photos

1,934,869 photos uploaded!

WunderBlog® & News

Nearby

Air Quality

  Air Quality AQ Index Pollutant
Not available.

Snow Depth

Station Depth Elevation

Earthquake Activity

City Distance Mag. Time & Date
Minimum magnitude displayed is 2.5.

Coastal Water Temperatures

Place Temperature

Stations

Nearby Weather Stations

Station Location Temp. Windchill Dew Point Humidity Wind Precip. Elev Updated Type
                   

Watches & Warnings

There are currently no watches in effect.